Hlavní strana
METAR-TAF:

METAR-TAF

Letiště :

Pointe-Noire, Kongo

zeměpisná šířka: 04-49S, zeměpisná délka: 011-54E, výška: 17 m

Aktuální stav počasí

Zpráva byla vytvořena před 1 hodinou a 15 minutami, v 09:00 UTC
Západojihozápadní vítr 9 kt, proměnlivý mezi jihojihozápadním a západním
Teplota 27°C
Vlhkost vzduchu 89%
Tlak 1014 hPa
Viditelnost 10 km a více
Polojasno ve výšce 900 ft
Oblačno až skoro zataženo ve výšce 2300 ft

METAR: FCPP 170900Z 24009KT 210V270 9999 SCT009 BKN023 27/25 Q1014 TEMPO BKN009 BKN023

Čas: 11:15 (10:15 UTC)

Předpověď počasí

Zpráva byla vytvořena před 5 hodinami a 15 minutami, v 05:00 UTC
Předpověď platná od 17 v 06 UTC do 18 v 06 UTC
Jihojihozápadní vítr 5 kt
Viditelnost: 9000 m
Polojasno ve výšce 2000 ft

TAF: FCPP 170500Z 1706/1806 20005KT 9000 SCT020

Stav a předpovědi počasí z více než 4 000 letišť (zprávy METAR a TAF).

Červené a žluté tečky na mapě představují dostupné meteorologické stanice.

Když kurzor umístíte na tečku, zobrazí se název stanice.

Pak kliknutím zobrazíte stav a předpověď počasí.

Chcete-li změnit mapu, kliknutím na zelené tlačítko se znaménkem +mapu přiblížíte, kliknutím na zelené tlačítko se znaménkem – mapu oddálíte a kliknutím na zelené šipky přejdete na sousední mapy.


METAR-TAF: